sensor_id;sensor_type;location;lat;lon;timestamp;temperature;humidity
56729;DHT22;42612;52.232;7.560;2023-05-10T00:01:05;19.60;62.70
56729;DHT22;42612;52.232;7.560;2023-05-10T00:03:31;19.60;62.80
56729;DHT22;42612;52.232;7.560;2023-05-10T00:05:56;19.60;62.80
56729;DHT22;42612;52.232;7.560;2023-05-10T00:08:22;19.60;62.80
56729;DHT22;42612;52.232;7.560;2023-05-10T00:10:48;19.60;62.70
56729;DHT22;42612;52.232;7.560;2023-05-10T00:13:14;19.50;62.80
56729;DHT22;42612;52.232;7.560;2023-05-10T00:15:40;19.60;62.80
56729;DHT22;42612;52.232;7.560;2023-05-10T00:18:06;19.60;62.70
56729;DHT22;42612;52.232;7.560;2023-05-10T00:20:31;19.50;62.60
56729;DHT22;42612;52.232;7.560;2023-05-10T00:22:57;19.50;62.70
56729;DHT22;42612;52.232;7.560;2023-05-10T00:25:23;19.50;62.70
56729;DHT22;42612;52.232;7.560;2023-05-10T00:27:48;19.50;62.70
56729;DHT22;42612;52.232;7.560;2023-05-10T00:30:15;19.50;62.80
56729;DHT22;42612;52.232;7.560;2023-05-10T00:32:40;19.50;63.50
56729;DHT22;42612;52.232;7.560;2023-05-10T00:35:06;19.40;62.80
56729;DHT22;42612;52.232;7.560;2023-05-10T00:37:32;19.40;62.90
56729;DHT22;42612;52.232;7.560;2023-05-10T00:39:58;19.50;63.00
56729;DHT22;42612;52.232;7.560;2023-05-10T00:42:24;19.50;63.00
56729;DHT22;42612;52.232;7.560;2023-05-10T00:44:50;19.50;63.00
56729;DHT22;42612;52.232;7.560;2023-05-10T00:47:16;19.40;63.00
56729;DHT22;42612;52.232;7.560;2023-05-10T00:49:42;19.40;63.10
56729;DHT22;42612;52.232;7.560;2023-05-10T00:52:09;19.40;63.10
56729;DHT22;42612;52.232;7.560;2023-05-10T00:54:35;19.40;63.10
56729;DHT22;42612;52.232;7.560;2023-05-10T00:57:01;19.40;63.00
56729;DHT22;42612;52.232;7.560;2023-05-10T00:59:27;19.40;63.00
56729;DHT22;42612;52.232;7.560;2023-05-10T01:01:53;19.30;62.90
56729;DHT22;42612;52.232;7.560;2023-05-10T01:04:19;19.30;63.00
56729;DHT22;42612;52.232;7.560;2023-05-10T01:06:47;19.30;63.00
56729;DHT22;42612;52.232;7.560;2023-05-10T01:09:12;19.30;63.00
56729;DHT22;42612;52.232;7.560;2023-05-10T01:11:38;19.30;63.20
56729;DHT22;42612;52.232;7.560;2023-05-10T01:14:05;19.30;63.10
56729;DHT22;42612;52.232;7.560;2023-05-10T01:16:41;19.30;63.10
56729;DHT22;42612;52.232;7.560;2023-05-10T01:19:22;19.30;63.50
56729;DHT22;42612;52.232;7.560;2023-05-10T01:33:56;19.20;63.60
56729;DHT22;42612;52.232;7.560;2023-05-10T01:36:35;19.20;63.60
56729;DHT22;42612;52.232;7.560;2023-05-10T01:44:39;19.20;63.10
56729;DHT22;42612;52.232;7.560;2023-05-10T01:47:43;19.10;63.00
56729;DHT22;42612;52.232;7.560;2023-05-10T01:50:18;19.10;62.50
56729;DHT22;42612;52.232;7.560;2023-05-10T01:52:53;19.00;62.60
56729;DHT22;42612;52.232;7.560;2023-05-10T01:55:21;18.90;62.40
56729;DHT22;42612;52.232;7.560;2023-05-10T01:58:10;18.90;62.50
56729;DHT22;42612;52.232;7.560;2023-05-10T02:00:47;18.80;62.60
56729;DHT22;42612;52.232;7.560;2023-05-10T02:03:15;18.80;62.70
56729;DHT22;42612;52.232;7.560;2023-05-10T02:05:43;18.70;62.40
56729;DHT22;42612;52.232;7.560;2023-05-10T02:08:10;18.70;62.40
56729;DHT22;42612;52.232;7.560;2023-05-10T02:10:37;18.60;62.40
56729;DHT22;42612;52.232;7.560;2023-05-10T02:13:05;18.50;62.30
56729;DHT22;42612;52.232;7.560;2023-05-10T02:15:32;18.50;62.60
56729;DHT22;42612;52.232;7.560;2023-05-10T02:18:00;18.50;62.50
56729;DHT22;42612;52.232;7.560;2023-05-10T02:20:27;18.40;62.50
56729;DHT22;42612;52.232;7.560;2023-05-10T02:23:02;18.40;62.60
56729;DHT22;42612;52.232;7.560;2023-05-10T02:25:29;18.40;62.60
56729;DHT22;42612;52.232;7.560;2023-05-10T02:27:56;18.30;62.60
56729;DHT22;42612;52.232;7.560;2023-05-10T02:30:23;18.30;62.70
56729;DHT22;42612;52.232;7.560;2023-05-10T02:32:50;18.30;62.80
56729;DHT22;42612;52.232;7.560;2023-05-10T02:35:17;18.30;62.80
56729;DHT22;42612;52.232;7.560;2023-05-10T02:37:44;18.20;62.80
56729;DHT22;42612;52.232;7.560;2023-05-10T02:40:11;18.20;62.90
56729;DHT22;42612;52.232;7.560;2023-05-10T02:42:41;18.20;63.00
56729;DHT22;42612;52.232;7.560;2023-05-10T02:45:11;18.10;63.10
56729;DHT22;42612;52.232;7.560;2023-05-10T02:47:39;18.10;63.80
56729;DHT22;42612;52.232;7.560;2023-05-10T02:50:05;18.10;63.10
56729;DHT22;42612;52.232;7.560;2023-05-10T02:52:44;18.10;63.10
56729;DHT22;42612;52.232;7.560;2023-05-10T02:55:15;18.10;63.50
56729;DHT22;42612;52.232;7.560;2023-05-10T02:57:48;18.00;63.20
56729;DHT22;42612;52.232;7.560;2023-05-10T03:00:16;18.00;63.10
56729;DHT22;42612;52.232;7.560;2023-05-10T03:02:42;18.00;63.00
56729;DHT22;42612;52.232;7.560;2023-05-10T03:05:08;18.00;63.00
56729;DHT22;42612;52.232;7.560;2023-05-10T03:07:34;18.00;63.10
56729;DHT22;42612;52.232;7.560;2023-05-10T03:10:00;18.00;63.20
56729;DHT22;42612;52.232;7.560;2023-05-10T03:18:22;18.00;63.60
56729;DHT22;42612;52.232;7.560;2023-05-10T03:21:03;17.90;63.40
56729;DHT22;42612;52.232;7.560;2023-05-10T03:23:46;17.90;63.60
56729;DHT22;42612;52.232;7.560;2023-05-10T03:26:24;17.90;63.60
56729;DHT22;42612;52.232;7.560;2023-05-10T03:28:52;17.90;64.30
56729;DHT22;42612;52.232;7.560;2023-05-10T03:31:18;17.90;63.20
56729;DHT22;42612;52.232;7.560;2023-05-10T03:33:48;17.90;63.20
56729;DHT22;42612;52.232;7.560;2023-05-10T03:36:14;17.90;63.40
56729;DHT22;42612;52.232;7.560;2023-05-10T03:38:40;17.90;63.20
56729;DHT22;42612;52.232;7.560;2023-05-10T03:41:06;17.90;63.20
56729;DHT22;42612;52.232;7.560;2023-05-10T03:43:32;17.90;63.30
56729;DHT22;42612;52.232;7.560;2023-05-10T03:45:57;17.90;63.40
56729;DHT22;42612;52.232;7.560;2023-05-10T03:48:23;17.90;63.40
56729;DHT22;42612;52.232;7.560;2023-05-10T03:50:49;17.90;63.40
56729;DHT22;42612;52.232;7.560;2023-05-10T03:53:15;17.90;63.40
56729;DHT22;42612;52.232;7.560;2023-05-10T03:55:41;17.80;63.20
56729;DHT22;42612;52.232;7.560;2023-05-10T03:58:06;17.90;63.20
56729;DHT22;42612;52.232;7.560;2023-05-10T04:00:36;17.80;63.20
56729;DHT22;42612;52.232;7.560;2023-05-10T04:03:02;17.80;63.30
56729;DHT22;42612;52.232;7.560;2023-05-10T04:05:28;17.80;63.40
56729;DHT22;42612;52.232;7.560;2023-05-10T04:07:53;17.80;63.50
56729;DHT22;42612;52.232;7.560;2023-05-10T04:10:19;17.80;63.50
56729;DHT22;42612;52.232;7.560;2023-05-10T04:12:45;17.80;63.50
56729;DHT22;42612;52.232;7.560;2023-05-10T04:15:11;17.80;63.40
56729;DHT22;42612;52.232;7.560;2023-05-10T04:17:37;17.80;63.40
56729;DHT22;42612;52.232;7.560;2023-05-10T04:20:03;17.80;63.40
56729;DHT22;42612;52.232;7.560;2023-05-10T04:22:29;17.80;63.40
56729;DHT22;42612;52.232;7.560;2023-05-10T04:24:55;17.80;63.40
56729;DHT22;42612;52.232;7.560;2023-05-10T04:27:21;17.80;63.40
56729;DHT22;42612;52.232;7.560;2023-05-10T04:29:47;17.80;63.40
56729;DHT22;42612;52.232;7.560;2023-05-10T04:32:12;17.80;63.40
56729;DHT22;42612;52.232;7.560;2023-05-10T04:34:38;17.80;63.40
56729;DHT22;42612;52.232;7.560;2023-05-10T04:37:04;17.80;63.40
56729;DHT22;42612;52.232;7.560;2023-05-10T04:39:29;17.70;63.40
56729;DHT22;42612;52.232;7.560;2023-05-10T04:41:55;17.70;63.40
56729;DHT22;42612;52.232;7.560;2023-05-10T04:44:21;17.70;63.50
56729;DHT22;42612;52.232;7.560;2023-05-10T04:46:46;17.70;63.50
56729;DHT22;42612;52.232;7.560;2023-05-10T04:49:12;17.70;63.50
56729;DHT22;42612;52.232;7.560;2023-05-10T04:51:38;17.70;63.50
56729;DHT22;42612;52.232;7.560;2023-05-10T04:54:03;17.60;63.60
56729;DHT22;42612;52.232;7.560;2023-05-10T04:56:29;17.60;63.70
56729;DHT22;42612;52.232;7.560;2023-05-10T04:58:55;17.60;63.70
56729;DHT22;42612;52.232;7.560;2023-05-10T05:01:20;17.60;63.80
56729;DHT22;42612;52.232;7.560;2023-05-10T05:03:46;17.60;63.90
56729;DHT22;42612;52.232;7.560;2023-05-10T05:06:12;17.60;63.90
56729;DHT22;42612;52.232;7.560;2023-05-10T05:08:37;17.60;63.90
56729;DHT22;42612;52.232;7.560;2023-05-10T05:11:03;17.60;63.90
56729;DHT22;42612;52.232;7.560;2023-05-10T05:13:29;17.60;64.00
56729;DHT22;42612;52.232;7.560;2023-05-10T05:15:54;17.60;64.00
56729;DHT22;42612;52.232;7.560;2023-05-10T05:18:20;17.50;63.90
56729;DHT22;42612;52.232;7.560;2023-05-10T05:20:46;17.50;64.00
56729;DHT22;42612;52.232;7.560;2023-05-10T05:23:12;17.50;64.10
56729;DHT22;42612;52.232;7.560;2023-05-10T05:25:37;17.50;64.20
56729;DHT22;42612;52.232;7.560;2023-05-10T05:28:03;17.50;64.20
56729;DHT22;42612;52.232;7.560;2023-05-10T05:30:29;17.50;64.30
56729;DHT22;42612;52.232;7.560;2023-05-10T05:32:54;17.50;64.40
56729;DHT22;42612;52.232;7.560;2023-05-10T05:35:20;17.50;64.50
56729;DHT22;42612;52.232;7.560;2023-05-10T05:37:46;17.40;64.40
56729;DHT22;42612;52.232;7.560;2023-05-10T05:40:14;17.50;64.60
56729;DHT22;42612;52.232;7.560;2023-05-10T05:42:40;17.50;64.80
56729;DHT22;42612;52.232;7.560;2023-05-10T05:45:06;17.50;64.70
56729;DHT22;42612;52.232;7.560;2023-05-10T05:47:34;17.50;64.80
56729;DHT22;42612;52.232;7.560;2023-05-10T05:49:59;17.50;65.20
56729;DHT22;42612;52.232;7.560;2023-05-10T05:52:25;17.50;64.60
56729;DHT22;42612;52.232;7.560;2023-05-10T05:54:51;17.50;64.70
56729;DHT22;42612;52.232;7.560;2023-05-10T05:57:17;17.50;64.80
56729;DHT22;42612;52.232;7.560;2023-05-10T05:59:42;17.60;65.00
56729;DHT22;42612;52.232;7.560;2023-05-10T06:02:09;17.60;64.90
56729;DHT22;42612;52.232;7.560;2023-05-10T06:04:35;17.60;65.00
56729;DHT22;42612;52.232;7.560;2023-05-10T06:07:01;17.60;65.10
56729;DHT22;42612;52.232;7.560;2023-05-10T06:09:26;17.60;65.00
56729;DHT22;42612;52.232;7.560;2023-05-10T06:11:52;17.60;65.00
56729;DHT22;42612;52.232;7.560;2023-05-10T06:14:20;17.60;65.10
56729;DHT22;42612;52.232;7.560;2023-05-10T06:16:46;17.60;65.20
56729;DHT22;42612;52.232;7.560;2023-05-10T06:19:12;17.70;65.10
56729;DHT22;42612;52.232;7.560;2023-05-10T06:21:37;17.70;65.10
56729;DHT22;42612;52.232;7.560;2023-05-10T06:24:03;17.70;65.10
56729;DHT22;42612;52.232;7.560;2023-05-10T06:26:30;17.70;65.10
56729;DHT22;42612;52.232;7.560;2023-05-10T06:28:56;17.70;65.20
56729;DHT22;42612;52.232;7.560;2023-05-10T06:31:22;17.70;65.20
56729;DHT22;42612;52.232;7.560;2023-05-10T06:33:47;17.70;65.30
56729;DHT22;42612;52.232;7.560;2023-05-10T06:36:13;17.70;65.30
56729;DHT22;42612;52.232;7.560;2023-05-10T06:38:39;17.80;65.30
56729;DHT22;42612;52.232;7.560;2023-05-10T06:41:04;17.70;65.30
56729;DHT22;42612;52.232;7.560;2023-05-10T06:43:30;17.70;65.20
56729;DHT22;42612;52.232;7.560;2023-05-10T06:45:57;17.70;65.30
56729;DHT22;42612;52.232;7.560;2023-05-10T06:48:23;17.70;65.40
56729;DHT22;42612;52.232;7.560;2023-05-10T06:50:48;17.80;65.50
56729;DHT22;42612;52.232;7.560;2023-05-10T06:53:14;17.70;65.50
56729;DHT22;42612;52.232;7.560;2023-05-10T06:55:40;17.80;65.60
56729;DHT22;42612;52.232;7.560;2023-05-10T06:58:06;17.80;65.60
56729;DHT22;42612;52.232;7.560;2023-05-10T07:00:32;17.80;65.80
56729;DHT22;42612;52.232;7.560;2023-05-10T07:02:57;17.80;65.80
56729;DHT22;42612;52.232;7.560;2023-05-10T07:05:23;17.80;65.80
56729;DHT22;42612;52.232;7.560;2023-05-10T07:07:49;17.80;65.80
56729;DHT22;42612;52.232;7.560;2023-05-10T07:10:15;17.80;65.80
56729;DHT22;42612;52.232;7.560;2023-05-10T07:12:41;17.80;65.90
56729;DHT22;42612;52.232;7.560;2023-05-10T07:15:07;17.80;65.80
56729;DHT22;42612;52.232;7.560;2023-05-10T07:17:33;17.90;66.00
56729;DHT22;42612;52.232;7.560;2023-05-10T07:19:59;17.80;65.80
56729;DHT22;42612;52.232;7.560;2023-05-10T07:22:25;17.90;65.80
56729;DHT22;42612;52.232;7.560;2023-05-10T07:24:51;17.90;65.70
56729;DHT22;42612;52.232;7.560;2023-05-10T07:27:17;17.90;65.80
56729;DHT22;42612;52.232;7.560;2023-05-10T07:29:42;17.90;65.60
56729;DHT22;42612;52.232;7.560;2023-05-10T07:32:08;17.90;65.50
56729;DHT22;42612;52.232;7.560;2023-05-10T07:34:34;18.00;65.60
56729;DHT22;42612;52.232;7.560;2023-05-10T07:37:00;17.90;65.50
56729;DHT22;42612;52.232;7.560;2023-05-10T07:39:26;17.90;65.50
56729;DHT22;42612;52.232;7.560;2023-05-10T07:41:53;17.90;65.50
56729;DHT22;42612;52.232;7.560;2023-05-10T07:44:22;18.00;65.50
56729;DHT22;42612;52.232;7.560;2023-05-10T07:46:48;18.00;65.40
56729;DHT22;42612;52.232;7.560;2023-05-10T07:49:14;18.00;65.30
56729;DHT22;42612;52.232;7.560;2023-05-10T07:51:40;18.00;65.40
56729;DHT22;42612;52.232;7.560;2023-05-10T07:54:06;18.00;65.50
56729;DHT22;42612;52.232;7.560;2023-05-10T07:56:32;18.10;65.50
56729;DHT22;42612;52.232;7.560;2023-05-10T07:59:02;18.10;65.60
56729;DHT22;42612;52.232;7.560;2023-05-10T08:01:33;18.10;65.90
56729;DHT22;42612;52.232;7.560;2023-05-10T08:04:00;18.10;65.60
56729;DHT22;42612;52.232;7.560;2023-05-10T08:06:26;18.20;65.50
56729;DHT22;42612;52.232;7.560;2023-05-10T08:08:53;18.10;65.40
56729;DHT22;42612;52.232;7.560;2023-05-10T08:11:20;18.20;65.50
56729;DHT22;42612;52.232;7.560;2023-05-10T08:13:47;18.20;65.50
56729;DHT22;42612;52.232;7.560;2023-05-10T08:16:13;18.20;65.40
56729;DHT22;42612;52.232;7.560;2023-05-10T08:18:40;18.30;65.60
56729;DHT22;42612;52.232;7.560;2023-05-10T08:21:06;18.30;65.40
56729;DHT22;42612;52.232;7.560;2023-05-10T08:23:32;18.30;65.50
56729;DHT22;42612;52.232;7.560;2023-05-10T08:25:57;18.30;65.40
56729;DHT22;42612;52.232;7.560;2023-05-10T08:28:24;18.30;65.30
56729;DHT22;42612;52.232;7.560;2023-05-10T08:30:50;18.30;65.30
56729;DHT22;42612;52.232;7.560;2023-05-10T08:33:17;18.40;65.20
56729;DHT22;42612;52.232;7.560;2023-05-10T08:35:43;18.30;65.00
56729;DHT22;42612;52.232;7.560;2023-05-10T08:38:09;18.40;65.10
56729;DHT22;42612;52.232;7.560;2023-05-10T08:40:37;18.40;65.10
56729;DHT22;42612;52.232;7.560;2023-05-10T08:43:08;18.40;65.00
56729;DHT22;42612;52.232;7.560;2023-05-10T08:45:44;18.40;65.10
56729;DHT22;42612;52.232;7.560;2023-05-10T08:48:13;18.40;64.90
56729;DHT22;42612;52.232;7.560;2023-05-10T08:50:40;18.50;64.90
56729;DHT22;42612;52.232;7.560;2023-05-10T08:53:09;18.50;64.90
56729;DHT22;42612;52.232;7.560;2023-05-10T08:55:35;18.50;64.90
56729;DHT22;42612;52.232;7.560;2023-05-10T08:58:06;18.50;64.70
56729;DHT22;42612;52.232;7.560;2023-05-10T09:00:32;18.60;64.40
56729;DHT22;42612;52.232;7.560;2023-05-10T09:02:59;18.50;64.30
56729;DHT22;42612;52.232;7.560;2023-05-10T09:05:25;18.50;64.30
56729;DHT22;42612;52.232;7.560;2023-05-10T09:07:51;18.50;64.40
56729;DHT22;42612;52.232;7.560;2023-05-10T09:10:18;18.50;64.60
56729;DHT22;42612;52.232;7.560;2023-05-10T09:12:45;18.50;64.50
56729;DHT22;42612;52.232;7.560;2023-05-10T09:15:12;18.50;64.30
56729;DHT22;42612;52.232;7.560;2023-05-10T09:17:44;18.60;64.30
56729;DHT22;42612;52.232;7.560;2023-05-10T09:20:11;18.60;64.20
56729;DHT22;42612;52.232;7.560;2023-05-10T09:22:37;18.60;64.10
56729;DHT22;42612;52.232;7.560;2023-05-10T09:25:14;18.60;64.10
56729;DHT22;42612;52.232;7.560;2023-05-10T09:27:43;18.60;64.00
56729;DHT22;42612;52.232;7.560;2023-05-10T09:30:10;18.60;64.00
56729;DHT22;42612;52.232;7.560;2023-05-10T09:32:43;18.60;64.10
56729;DHT22;42612;52.232;7.560;2023-05-10T09:35:11;18.60;64.30
56729;DHT22;42612;52.232;7.560;2023-05-10T09:37:44;18.70;64.60
56729;DHT22;42612;52.232;7.560;2023-05-10T09:40:21;18.70;64.30
56729;DHT22;42612;52.232;7.560;2023-05-10T09:45:24;18.80;64.00
56729;DHT22;42612;52.232;7.560;2023-05-10T09:47:50;18.80;63.80
56729;DHT22;42612;52.232;7.560;2023-05-10T09:50:16;18.80;63.80
56729;DHT22;42612;52.232;7.560;2023-05-10T09:52:50;18.80;63.60
56729;DHT22;42612;52.232;7.560;2023-05-10T09:55:19;18.80;63.30
56729;DHT22;42612;52.232;7.560;2023-05-10T09:57:47;18.90;63.50
56729;DHT22;42612;52.232;7.560;2023-05-10T10:00:18;18.90;63.60
56729;DHT22;42612;52.232;7.560;2023-05-10T10:02:47;18.90;63.50
56729;DHT22;42612;52.232;7.560;2023-05-10T10:05:20;18.90;64.00
56729;DHT22;42612;52.232;7.560;2023-05-10T10:07:46;19.00;64.10
56729;DHT22;42612;52.232;7.560;2023-05-10T10:10:12;19.10;64.00
56729;DHT22;42612;52.232;7.560;2023-05-10T10:12:41;19.10;64.10
56729;DHT22;42612;52.232;7.560;2023-05-10T10:15:08;19.10;63.60
56729;DHT22;42612;52.232;7.560;2023-05-10T10:17:54;19.20;63.70
56729;DHT22;42612;52.232;7.560;2023-05-10T10:20:21;19.30;62.90
56729;DHT22;42612;52.232;7.560;2023-05-10T10:22:48;19.30;63.10
56729;DHT22;42612;52.232;7.560;2023-05-10T10:25:18;19.30;63.10
56729;DHT22;42612;52.232;7.560;2023-05-10T10:30:47;19.30;62.70
56729;DHT22;42612;52.232;7.560;2023-05-10T10:36:06;19.40;63.10
56729;DHT22;42612;52.232;7.560;2023-05-10T10:41:49;19.50;63.40
56729;DHT22;42612;52.232;7.560;2023-05-10T10:52:31;19.80;62.20
56729;DHT22;42612;52.232;7.560;2023-05-10T11:10:24;20.00;61.20
56729;DHT22;42612;52.232;7.560;2023-05-10T11:13:01;20.00;61.40
56729;DHT22;42612;52.232;7.560;2023-05-10T11:15:31;20.00;61.80
56729;DHT22;42612;52.232;7.560;2023-05-10T11:18:28;20.00;61.40
56729;DHT22;42612;52.232;7.560;2023-05-10T11:20:59;20.10;61.20
56729;DHT22;42612;52.232;7.560;2023-05-10T11:23:32;20.10;61.90
56729;DHT22;42612;52.232;7.560;2023-05-10T11:26:13;20.20;61.70
56729;DHT22;42612;52.232;7.560;2023-05-10T11:28:47;20.30;61.80
56729;DHT22;42612;52.232;7.560;2023-05-10T11:31:14;20.40;61.50
56729;DHT22;42612;52.232;7.560;2023-05-10T11:33:51;20.40;61.60
56729;DHT22;42612;52.232;7.560;2023-05-10T11:36:24;20.60;60.10
56729;DHT22;42612;52.232;7.560;2023-05-10T11:38:52;20.70;60.80
56729;DHT22;42612;52.232;7.560;2023-05-10T11:41:19;20.80;61.50
56729;DHT22;42612;52.232;7.560;2023-05-10T11:43:52;20.90;61.80
56729;DHT22;42612;52.232;7.560;2023-05-10T11:46:21;20.90;60.70
56729;DHT22;42612;52.232;7.560;2023-05-10T11:48:54;21.00;60.10
56729;DHT22;42612;52.232;7.560;2023-05-10T11:51:23;21.00;59.60
56729;DHT22;42612;52.232;7.560;2023-05-10T11:53:54;21.10;59.70
56729;DHT22;42612;52.232;7.560;2023-05-10T11:56:21;21.10;60.00
56729;DHT22;42612;52.232;7.560;2023-05-10T11:58:56;21.10;59.80
56729;DHT22;42612;52.232;7.560;2023-05-10T12:01:23;21.20;58.50
56729;DHT22;42612;52.232;7.560;2023-05-10T12:03:51;21.30;59.00
56729;DHT22;42612;52.232;7.560;2023-05-10T12:06:40;21.30;59.30
56729;DHT22;42612;52.232;7.560;2023-05-10T12:09:07;21.40;59.30
56729;DHT22;42612;52.232;7.560;2023-05-10T12:11:37;21.40;59.20
56729;DHT22;42612;52.232;7.560;2023-05-10T12:14:04;21.50;59.10
56729;DHT22;42612;52.232;7.560;2023-05-10T12:16:30;21.40;58.80
56729;DHT22;42612;52.232;7.560;2023-05-10T12:18:58;21.40;58.40
56729;DHT22;42612;52.232;7.560;2023-05-10T12:21:25;21.40;58.40
56729;DHT22;42612;52.232;7.560;2023-05-10T12:23:54;21.40;58.40
56729;DHT22;42612;52.232;7.560;2023-05-10T12:26:23;21.40;58.10
56729;DHT22;42612;52.232;7.560;2023-05-10T12:28:50;21.40;58.40
56729;DHT22;42612;52.232;7.560;2023-05-10T12:31:15;21.30;58.40
56729;DHT22;42612;52.232;7.560;2023-05-10T12:33:43;21.30;58.30
56729;DHT22;42612;52.232;7.560;2023-05-10T12:36:14;21.30;57.70
56729;DHT22;42612;52.232;7.560;2023-05-10T12:38:44;21.20;58.40
56729;DHT22;42612;52.232;7.560;2023-05-10T12:41:15;21.20;58.90
56729;DHT22;42612;52.232;7.560;2023-05-10T12:43:42;21.20;58.50
56729;DHT22;42612;52.232;7.560;2023-05-10T12:46:16;21.30;58.50
56729;DHT22;42612;52.232;7.560;2023-05-10T12:48:43;21.30;58.00
56729;DHT22;42612;52.232;7.560;2023-05-10T12:51:09;21.30;58.30
56729;DHT22;42612;52.232;7.560;2023-05-10T12:53:37;21.40;58.10
56729;DHT22;42612;52.232;7.560;2023-05-10T12:56:04;21.40;57.60
56729;DHT22;42612;52.232;7.560;2023-05-10T12:58:30;21.40;57.70
56729;DHT22;42612;52.232;7.560;2023-05-10T13:00:58;21.40;57.50
56729;DHT22;42612;52.232;7.560;2023-05-10T13:03:24;21.40;57.50
56729;DHT22;42612;52.232;7.560;2023-05-10T13:05:50;21.50;57.70
56729;DHT22;42612;52.232;7.560;2023-05-10T13:08:16;21.50;57.80
56729;DHT22;42612;52.232;7.560;2023-05-10T13:10:41;21.50;57.20
56729;DHT22;42612;52.232;7.560;2023-05-10T13:13:07;21.50;56.90
56729;DHT22;42612;52.232;7.560;2023-05-10T13:15:34;21.50;56.70
56729;DHT22;42612;52.232;7.560;2023-05-10T13:17:59;21.50;56.80
56729;DHT22;42612;52.232;7.560;2023-05-10T13:20:25;21.50;56.60
56729;DHT22;42612;52.232;7.560;2023-05-10T13:22:51;21.40;56.70
56729;DHT22;42612;52.232;7.560;2023-05-10T13:25:17;21.40;57.00
56729;DHT22;42612;52.232;7.560;2023-05-10T13:27:42;21.40;57.10
56729;DHT22;42612;52.232;7.560;2023-05-10T13:30:09;21.40;57.80
56729;DHT22;42612;52.232;7.560;2023-05-10T13:32:36;21.40;57.10
56729;DHT22;42612;52.232;7.560;2023-05-10T13:35:02;21.30;57.40
56729;DHT22;42612;52.232;7.560;2023-05-10T13:37:31;21.30;57.30
56729;DHT22;42612;52.232;7.560;2023-05-10T13:40:00;21.30;57.60
56729;DHT22;42612;52.232;7.560;2023-05-10T13:42:26;21.30;57.80
56729;DHT22;42612;52.232;7.560;2023-05-10T13:44:52;21.30;57.50
56729;DHT22;42612;52.232;7.560;2023-05-10T13:47:18;21.30;57.70
56729;DHT22;42612;52.232;7.560;2023-05-10T13:49:44;21.30;58.50
56729;DHT22;42612;52.232;7.560;2023-05-10T13:52:09;21.40;58.10
56729;DHT22;42612;52.232;7.560;2023-05-10T13:54:38;21.50;58.00
56729;DHT22;42612;52.232;7.560;2023-05-10T13:57:04;21.50;57.40
56729;DHT22;42612;52.232;7.560;2023-05-10T13:59:30;21.60;57.40
56729;DHT22;42612;52.232;7.560;2023-05-10T14:01:59;21.60;57.30
56729;DHT22;42612;52.232;7.560;2023-05-10T14:04:28;21.60;56.60
56729;DHT22;42612;52.232;7.560;2023-05-10T14:06:54;21.60;56.50
56729;DHT22;42612;52.232;7.560;2023-05-10T14:09:20;21.70;56.70
56729;DHT22;42612;52.232;7.560;2023-05-10T14:11:46;21.70;57.00
56729;DHT22;42612;52.232;7.560;2023-05-10T14:14:12;21.80;56.90
56729;DHT22;42612;52.232;7.560;2023-05-10T14:16:42;21.80;56.90
56729;DHT22;42612;52.232;7.560;2023-05-10T14:19:09;21.90;57.00
56729;DHT22;42612;52.232;7.560;2023-05-10T14:21:34;21.90;56.80
56729;DHT22;42612;52.232;7.560;2023-05-10T14:24:00;21.90;56.60
56729;DHT22;42612;52.232;7.560;2023-05-10T14:26:26;22.00;56.50
56729;DHT22;42612;52.232;7.560;2023-05-10T14:28:52;22.00;56.70
56729;DHT22;42612;52.232;7.560;2023-05-10T14:31:18;22.10;56.70
56729;DHT22;42612;52.232;7.560;2023-05-10T14:33:46;22.10;57.10
56729;DHT22;42612;52.232;7.560;2023-05-10T14:36:12;22.20;57.10
56729;DHT22;42612;52.232;7.560;2023-05-10T14:38:40;22.20;56.70
56729;DHT22;42612;52.232;7.560;2023-05-10T14:41:05;22.30;56.20
56729;DHT22;42612;52.232;7.560;2023-05-10T14:43:31;22.40;56.10
56729;DHT22;42612;52.232;7.560;2023-05-10T14:45:57;22.40;55.80
56729;DHT22;42612;52.232;7.560;2023-05-10T14:48:23;22.40;55.60
56729;DHT22;42612;52.232;7.560;2023-05-10T14:50:49;22.50;55.60
56729;DHT22;42612;52.232;7.560;2023-05-10T14:53:15;22.50;55.70
56729;DHT22;42612;52.232;7.560;2023-05-10T14:55:41;22.50;55.40
56729;DHT22;42612;52.232;7.560;2023-05-10T14:58:07;22.60;54.50
56729;DHT22;42612;52.232;7.560;2023-05-10T15:00:33;22.60;54.50
56729;DHT22;42612;52.232;7.560;2023-05-10T15:02:58;22.50;54.20
56729;DHT22;42612;52.232;7.560;2023-05-10T15:05:24;22.50;54.40
56729;DHT22;42612;52.232;7.560;2023-05-10T15:07:50;22.40;54.40
56729;DHT22;42612;52.232;7.560;2023-05-10T15:10:16;22.40;54.10
56729;DHT22;42612;52.232;7.560;2023-05-10T15:12:41;22.30;53.90
56729;DHT22;42612;52.232;7.560;2023-05-10T15:15:07;22.20;53.90
56729;DHT22;42612;52.232;7.560;2023-05-10T15:17:33;22.10;54.10
56729;DHT22;42612;52.232;7.560;2023-05-10T15:20:00;22.00;54.10
56729;DHT22;42612;52.232;7.560;2023-05-10T15:22:27;21.90;54.10
56729;DHT22;42612;52.232;7.560;2023-05-10T15:24:53;21.80;54.30
56729;DHT22;42612;52.232;7.560;2023-05-10T15:27:19;21.80;54.70
56729;DHT22;42612;52.232;7.560;2023-05-10T15:29:45;21.70;55.10
56729;DHT22;42612;52.232;7.560;2023-05-10T15:32:11;21.60;55.40
56729;DHT22;42612;52.232;7.560;2023-05-10T15:34:36;21.60;55.50
56729;DHT22;42612;52.232;7.560;2023-05-10T15:37:02;21.50;55.50
56729;DHT22;42612;52.232;7.560;2023-05-10T15:39:28;21.50;55.50
56729;DHT22;42612;52.232;7.560;2023-05-10T15:41:53;21.50;55.40
56729;DHT22;42612;52.232;7.560;2023-05-10T15:44:19;21.40;55.70
56729;DHT22;42612;52.232;7.560;2023-05-10T15:46:45;21.40;55.80
56729;DHT22;42612;52.232;7.560;2023-05-10T15:49:11;21.40;55.90
56729;DHT22;42612;52.232;7.560;2023-05-10T15:51:36;21.30;55.60
56729;DHT22;42612;52.232;7.560;2023-05-10T15:54:02;21.30;55.60
56729;DHT22;42612;52.232;7.560;2023-05-10T15:56:28;21.30;55.70
56729;DHT22;42612;52.232;7.560;2023-05-10T15:58:54;21.30;55.40
56729;DHT22;42612;52.232;7.560;2023-05-10T16:01:20;21.30;55.50
56729;DHT22;42612;52.232;7.560;2023-05-10T16:03:46;21.30;55.60
56729;DHT22;42612;52.232;7.560;2023-05-10T16:06:11;21.30;55.60
56729;DHT22;42612;52.232;7.560;2023-05-10T16:08:37;21.40;55.70
56729;DHT22;42612;52.232;7.560;2023-05-10T16:11:03;21.40;55.60
56729;DHT22;42612;52.232;7.560;2023-05-10T16:13:29;21.40;56.50
56729;DHT22;42612;52.232;7.560;2023-05-10T16:15:55;21.40;55.80
56729;DHT22;42612;52.232;7.560;2023-05-10T16:18:22;21.50;55.40
56729;DHT22;42612;52.232;7.560;2023-05-10T16:20:48;21.50;55.20
56729;DHT22;42612;52.232;7.560;2023-05-10T16:23:14;21.50;55.20
56729;DHT22;42612;52.232;7.560;2023-05-10T16:25:40;21.60;54.90
56729;DHT22;42612;52.232;7.560;2023-05-10T16:28:06;21.60;54.90
56729;DHT22;42612;52.232;7.560;2023-05-10T16:30:31;21.60;54.90